Time;durP1;ratioP1;P1;durP2;ratioP2;P2;SDS_P1;SDS_P2;PMS_P1;PMS_P2;Temp;Humidity;BMP_temperature;BMP_pressure;BME280_temperature;BME280_humidity;BME280_pressure;Samples;Min_cycle;Max_cycle;Signal;HPM_P1;HPM_P2
2022/06/01 00:00:30;;;;;;;;;;;;;;;22.87;46.14;100909.56;2073946;28;970;-60
2022/06/01 00:01:31;;;;;;;;;;;;;;;22.87;46.09;100910.47;2074042;28;847;-61
2022/06/01 00:02:31;;;;;;;;;;;;;;;22.87;46.00;100914.97;2074614;28;796;-60
2022/06/01 00:03:33;;;;;;;;;;;;;;;22.86;46.49;100907.81;2073881;28;1292;-61
2022/06/01 00:04:33;;;;;;;;;;;;;;;22.84;45.93;100907.88;2074137;28;1071;-61
2022/06/01 00:05:33;;;;;;;;;;;;;;;22.83;46.72;100908.81;2074591;28;958;-61
2022/06/01 00:06:33;;;;;;;;;;;;;;;22.83;46.82;100913.34;2074746;28;721;-60
2022/06/01 00:07:33;;;;;;;;;;;;;;;22.81;46.39;100905.31;2074575;28;824;-61
2022/06/01 00:08:34;;;;;;;;;;;;;;;22.80;46.28;100911.66;2074607;28;728;-61
2022/06/01 00:09:34;;;;;;;;;;;;;;;22.80;46.02;100909.81;2074739;28;1890;-61
2022/06/01 00:10:34;;;;;;;;;;;;;;;22.79;46.18;100907.19;2074557;28;970;-61
2022/06/01 00:11:34;;;;;;;;;;;;;;;22.79;46.88;100912.59;2074552;28;1184;-61
2022/06/01 00:12:35;;;;;;;;;;;;;;;22.78;46.24;100914.41;2074588;28;748;-61
2022/06/01 00:13:35;;;;;;;;;;;;;;;22.78;46.36;100909.00;2074557;28;843;-61
2022/06/01 00:14:36;;;;;;;;;;;;;;;22.78;46.29;100914.41;2074594;28;989;-61
2022/06/01 00:15:36;;;;;;;;;;;;;;;22.77;46.98;100912.66;2074581;28;986;-60
2022/06/01 00:16:37;;;;;;;;;;;;;;;22.78;47.01;100910.84;2074546;28;792;-61
2022/06/01 00:17:37;;;;;;;;;;;;;;;22.77;46.88;100923.44;2074415;28;1070;-61
2022/06/01 00:18:37;;;;;;;;;;;;;;;22.76;46.93;100912.72;2074596;28;899;-60
2022/06/01 00:19:37;;;;;;;;;;;;;;;22.76;46.64;100918.13;2074620;28;811;-62
2022/06/01 00:20:38;;;;;;;;;;;;;;;22.75;46.52;100910.97;2074549;28;963;-61
2022/06/01 00:22:11;;;;;;;;;;;;;;;22.75;47.38;100916.38;2074664;28;903;-61
2022/06/01 00:22:58;;;;;;;;;;;;;;;22.73;47.37;100916.41;2074452;28;1498;-61
2022/06/01 00:23:58;;;;;;;;;;;;;;;22.73;46.94;100908.31;2074546;28;871;-59
2022/06/01 00:24:59;;;;;;;;;;;;;;;22.73;46.92;100918.25;2074531;28;962;-61
2022/06/01 00:25:59;;;;;;;;;;;;;;;22.72;46.94;100905.69;2074521;28;895;-61
2022/06/01 00:26:59;;;;;;;;;;;;;;;22.71;46.89;100914.72;2074539;28;911;-61
2022/06/01 00:27:59;;;;;;;;;;;;;;;22.70;47.63;100913.84;2074506;28;780;-60
2022/06/01 00:28:59;;;;;;;;;;;;;;;22.71;47.09;100912.03;2074609;28;836;-61
2022/06/01 00:30:00;;;;;;;;;;;;;;;22.72;47.52;100919.19;2074467;28;1964;-62
2022/06/01 00:31:00;;;;;;;;;;;;;;;22.70;46.69;100913.84;2074479;28;974;-61
2022/06/01 00:32:00;;;;;;;;;;;;;;;22.70;46.75;100915.69;2074508;28;863;-61
2022/06/01 00:33:01;;;;;;;;;;;;;;;22.70;47.67;100919.25;2074491;28;982;-61
2022/06/01 00:34:01;;;;;;;;;;;;;;;22.69;47.16;100922.88;2074459;28;978;-61
2022/06/01 00:35:03;;;;;;;;;;;;;;;22.68;47.13;100921.13;2074451;28;769;-62
2022/06/01 00:36:06;;;;;;;;;;;;;;;22.68;47.60;100920.25;2075589;28;928;-59
2022/06/01 00:37:08;;;;;;;;;;;;;;;22.67;47.32;100922.06;2075978;28;1278;-61
2022/06/01 00:38:08;;;;;;;;;;;;;;;22.66;47.73;100914.94;2076003;28;796;-61
2022/06/01 00:39:08;;;;;;;;;;;;;;;22.66;46.93;100920.34;2076037;28;765;-61
2022/06/01 00:40:09;;;;;;;;;;;;;;;22.64;46.98;100914.97;2075985;28;867;-60
2022/06/01 00:41:10;;;;;;;;;;;;;;;22.64;47.01;100917.69;2075941;28;966;-60
2022/06/01 00:42:17;;;;;;;;;;;;;;;22.64;47.53;100925.78;2075335;28;922;-61
2022/06/01 00:43:23;;;;;;;;;;;;;;;22.63;47.03;100926.72;2075577;28;760;-61
2022/06/01 00:44:23;;;;;;;;;;;;;;;22.62;47.28;100924.97;2075913;28;864;-60
2022/06/01 00:45:24;;;;;;;;;;;;;;;22.62;47.86;100919.56;2075935;28;776;-59
2022/06/01 00:46:24;;;;;;;;;;;;;;;22.62;48.02;100924.97;2075910;28;781;-61
2022/06/01 00:47:25;;;;;;;;;;;;;;;22.60;47.32;100924.16;2075883;28;982;-60
2022/06/01 00:48:26;;;;;;;;;;;;;;;22.60;47.17;100918.75;2075893;28;982;-61
2022/06/01 00:49:28;;;;;;;;;;;;;;;22.59;47.77;100919.69;2075806;28;1963;-61
2022/06/01 00:50:31;;;;;;;;;;;;;;;22.59;48.06;100918.81;2075963;28;803;-61
2022/06/01 00:51:31;;;;;;;;;;;;;;;22.58;47.44;100912.53;2075914;28;677;-61
2022/06/01 00:52:35;;;;;;;;;;;;;;;22.58;47.19;100922.47;2075930;28;839;-61
2022/06/01 00:53:39;;;;;;;;;;;;;;;22.57;47.62;100920.72;2075216;28;835;-61
2022/06/01 00:54:40;;;;;;;;;;;;;;;22.57;47.35;100918.88;2075429;28;887;-60
2022/06/01 00:55:42;;;;;;;;;;;;;;;22.57;48.14;100921.56;2075131;28;1284;-61
2022/06/01 00:56:46;;;;;;;;;;;;;;;22.57;47.92;100921.56;2075279;28;882;-60
2022/06/01 00:57:52;;;;;;;;;;;;;;;22.57;48.23;100921.56;2075816;28;923;-61
2022/06/01 00:58:55;;;;;;;;;;;;;;;22.57;47.64;100921.56;2076375;28;808;-61
2022/06/01 00:59:56;;;;;;;;;;;;;;;22.57;47.65;100923.41;2075924;28;804;-62
2022/06/01 01:00:58;;;;;;;;;;;;;;;22.56;48.09;100921.66;2075819;28;970;-60
2022/06/01 01:01:58;;;;;;;;;;;;;;;22.56;47.56;100917.13;2075855;28;867;-61
2022/06/01 01:03:01;;;;;;;;;;;;;;;22.55;47.50;100920.75;2075957;28;993;-61
2022/06/01 01:04:03;;;;;;;;;;;;;;;22.54;48.01;100921.69;2075790;28;1048;-61
2022/06/01 01:05:05;;;;;;;;;;;;;;;22.54;47.74;100919.00;2075777;28;1045;-60
2022/06/01 01:06:10;;;;;;;;;;;;;;;22.55;48.18;100922.59;2075790;28;764;-60
2022/06/01 01:07:12;;;;;;;;;;;;;;;22.53;47.72;100919.06;2075813;28;827;-61
2022/06/01 01:08:12;;;;;;;;;;;;;;;22.54;47.65;100919.00;2075788;28;839;-60
2022/06/01 01:09:13;;;;;;;;;;;;;;;22.54;48.07;100916.28;2075659;28;1949;-60
2022/06/01 01:10:13;;;;;;;;;;;;;;;22.53;47.42;100916.38;2075687;28;914;-60
2022/06/01 01:11:14;;;;;;;;;;;;;;;22.53;47.42;100921.78;2075817;28;1764;-61
2022/06/01 01:12:15;;;;;;;;;;;;;;;22.53;48.24;100916.38;2075766;28;934;-60
2022/06/01 01:13:15;;;;;;;;;;;;;;;22.53;48.15;100922.63;2075840;28;986;-60
2022/06/01 01:14:19;;;;;;;;;;;;;;;22.53;47.65;100916.38;2075716;28;808;-61
2022/06/01 01:15:20;;;;;;;;;;;;;;;22.53;47.59;100927.16;2075691;28;867;-60
2022/06/01 01:16:20;;;;;;;;;;;;;;;22.52;47.74;100920.00;2075679;28;1029;-61
2022/06/01 01:17:21;;;;;;;;;;;;;;;22.51;47.78;100924.50;2075553;28;1289;-60
2022/06/01 01:18:24;;;;;;;;;;;;;;;22.52;48.34;100922.72;2075719;28;859;-60
2022/06/01 01:19:35;;;;;;;;;;;;;;;22.52;47.81;100930.81;2075641;28;974;-61
2022/06/01 01:20:42;;;;;;;;;;;;;;;22.50;47.83;100926.34;2075839;28;804;-61
2022/06/01 01:22:07;;;;;;;;;;;;;;;22.50;47.59;100926.34;2075579;28;1010;-61
2022/06/01 01:23:17;;;;;;;;;;;;;;;22.51;47.57;100924.50;2075721;28;780;-61
2022/06/01 01:24:23;;;;;;;;;;;;;;;22.50;47.93;100931.75;2075683;28;831;-60
2022/06/01 01:25:23;;;;;;;;;;;;;;;22.51;47.89;100927.22;2075639;28;855;-60
2022/06/01 01:26:23;;;;;;;;;;;;;;;22.49;48.17;100921.91;2075613;28;792;-60
2022/06/01 01:27:24;;;;;;;;;;;;;;;22.49;48.37;100927.28;2075536;28;1849;-60
2022/06/01 01:28:24;;;;;;;;;;;;;;;22.50;48.45;100933.56;2075684;28;962;-59
2022/06/01 01:29:38;;;;;;;;;;;;;;;22.50;47.88;100930.84;2074891;28;1910;-61
2022/06/01 01:30:44;;;;;;;;;;;;;;;22.50;47.85;100930.84;2075126;28;973;-61
2022/06/01 01:31:45;;;;;;;;;;;;;;;22.51;48.32;100924.50;2075571;28;705;-60
2022/06/01 01:32:45;;;;;;;;;;;;;;;22.50;48.13;100931.75;2075596;28;856;-62
2022/06/01 01:33:46;;;;;;;;;;;;;;;22.50;48.47;100929.06;2075560;28;852;-60
2022/06/01 01:34:46;;;;;;;;;;;;;;;22.49;48.46;100924.59;2075601;28;836;-61
2022/06/01 01:35:48;;;;;;;;;;;;;;;22.50;47.90;100928.16;2075567;28;752;-62
2022/06/01 01:36:52;;;;;;;;;;;;;;;22.50;48.42;100931.75;2075523;28;765;-62
2022/06/01 01:37:52;;;;;;;;;;;;;;;22.50;48.55;100930.84;2075567;28;830;-61
2022/06/01 01:38:56;;;;;;;;;;;;;;;22.49;47.79;100932.69;2075494;28;752;-61
2022/06/01 01:39:57;;;;;;;;;;;;;;;22.49;48.63;100932.69;2075474;28;1144;-61
2022/06/01 01:41:03;;;;;;;;;;;;;;;22.50;47.98;100933.56;2075509;28;1326;-61
2022/06/01 01:42:03;;;;;;;;;;;;;;;22.50;48.23;100922.75;2075834;28;772;-60
2022/06/01 01:43:07;;;;;;;;;;;;;;;22.50;47.77;100933.56;2075623;28;789;-60
2022/06/01 01:44:10;;;;;;;;;;;;;;;22.50;47.72;100930.84;2075618;28;835;-61
2022/06/01 01:45:16;;;;;;;;;;;;;;;22.49;48.12;100935.41;2075570;28;836;-60
2022/06/01 01:46:17;;;;;;;;;;;;;;;22.49;47.68;100931.78;2075504;28;982;-60
2022/06/01 01:47:17;;;;;;;;;;;;;;;22.49;47.77;100932.69;2074907;28;982;-60
2022/06/01 01:48:17;;;;;;;;;;;;;;;22.49;48.46;100931.78;2075381;28;1029;-60
2022/06/01 01:49:21;;;;;;;;;;;;;;;22.48;47.87;100941.72;2075393;28;1973;-60
2022/06/01 01:50:22;;;;;;;;;;;;;;;22.45;47.90;100941.84;2075481;28;796;-62
2022/06/01 01:51:24;;;;;;;;;;;;;;;22.44;48.52;100929.28;2075537;28;748;-61
2022/06/01 01:52:24;;;;;;;;;;;;;;;22.43;48.20;100937.41;2075392;28;864;-60
2022/06/01 01:53:24;;;;;;;;;;;;;;;22.40;48.55;100933.03;2075439;28;848;-60
2022/06/01 01:54:43;;;;;;;;;;;;;;;22.39;48.03;100941.16;2075437;28;801;-60
2022/06/01 01:55:46;;;;;;;;;;;;;;;22.36;48.88;100948.47;2075499;28;966;-61
2022/06/01 01:56:50;;;;;;;;;;;;;;;22.36;48.22;100940.38;2075400;28;783;-61
2022/06/01 01:57:59;;;;;;;;;;;;;;;22.37;48.07;100938.53;2075356;28;916;-61
2022/06/01 01:59:07;;;;;;;;;;;;;;;22.39;48.48;100941.16;2075576;28;1048;-60
2022/06/01 02:00:10;;;;;;;;;;;;;;;22.40;48.61;100940.22;2075387;28;970;-61
2022/06/01 02:01:16;;;;;;;;;;;;;;;22.40;48.80;100938.41;2066622;28;1294;-61
2022/06/01 02:02:33;;;;;;;;;;;;;;;22.41;48.89;100941.97;2067391;28;978;-59
2022/06/01 02:03:44;;;;;;;;;;;;;;;22.41;48.84;100944.69;2075388;28;973;-61
2022/06/01 02:06:21;;;;;;;;;;;;;;;22.41;48.24;100941.97;2075405;28;594;-60
2022/06/01 02:07:25;;;;;;;;;;;;;;;22.40;48.40;100942.91;2075343;28;780;-60
2022/06/01 02:08:38;;;;;;;;;;;;;;;22.40;48.16;100941.13;2075417;28;831;-61
2022/06/01 02:12:43;;;;;;;;;;;;;;;22.41;48.70;100939.28;2050177;29;1108;-61
2022/06/01 02:13:44;;;;;;;;;;;;;;;22.41;48.18;100939.28;2050178;29;816;-61
2022/06/01 02:14:53;;;;;;;;;;;;;;;22.41;48.26;100939.28;2050058;29;958;-62
2022/06/01 02:15:55;;;;;;;;;;;;;;;22.41;48.53;100944.69;2050111;29;789;-61
2022/06/01 02:17:03;;;;;;;;;;;;;;;22.41;48.48;100939.28;2050139;29;875;-61
2022/06/01 02:18:08;;;;;;;;;;;;;;;22.40;48.40;100941.13;2049907;29;1119;-61
2022/06/01 02:19:10;;;;;;;;;;;;;;;22.41;48.11;100944.69;2050104;29;823;-61
2022/06/01 02:20:13;;;;;;;;;;;;;;;22.40;48.31;100946.50;2050109;29;971;-61
2022/06/01 02:21:15;;;;;;;;;;;;;;;22.41;48.31;100947.38;2050097;29;986;-61
2022/06/01 02:22:15;;;;;;;;;;;;;;;22.40;48.15;100948.31;2050037;29;871;-60
2022/06/01 02:23:16;;;;;;;;;;;;;;;22.39;48.55;100946.56;2050081;29;845;-61
2022/06/01 02:24:17;;;;;;;;;;;;;;;22.38;48.99;100952.91;2049995;29;908;-61
2022/06/01 02:25:18;;;;;;;;;;;;;;;22.37;49.09;100952.03;2050077;29;785;-61
2022/06/01 02:26:18;;;;;;;;;;;;;;;22.38;48.72;100945.69;2050002;29;1006;-60
2022/06/01 02:27:19;;;;;;;;;;;;;;;22.38;48.70;100945.69;2050070;29;971;-60
2022/06/01 02:28:19;;;;;;;;;;;;;;;22.39;48.19;100954.66;2050014;29;884;-61
2022/06/01 02:29:24;;;;;;;;;;;;;;;22.38;48.31;100944.81;2049961;29;1915;-61
2022/06/01 02:30:32;;;;;;;;;;;;;;;22.37;49.19;100946.63;2049937;29;1096;-60
2022/06/01 02:31:33;;;;;;;;;;;;;;;22.36;48.65;100944.88;2049999;29;797;-61
2022/06/01 02:32:35;;;;;;;;;;;;;;;22.37;48.71;100949.34;2050058;29;963;-61
2022/06/01 02:33:35;;;;;;;;;;;;;;;22.36;49.10;100952.97;2049950;29;982;-61
2022/06/01 02:34:37;;;;;;;;;;;;;;;22.36;48.64;100951.16;2049969;29;919;-62
2022/06/01 02:35:40;;;;;;;;;;;;;;;22.37;48.61;100952.03;2049963;29;883;-62
2022/06/01 02:36:42;;;;;;;;;;;;;;;22.36;48.94;100951.16;2049949;29;974;-61
2022/06/01 02:37:44;;;;;;;;;;;;;;;22.37;48.63;100949.34;2049880;29;1228;-60
2022/06/01 02:38:49;;;;;;;;;;;;;;;22.36;48.34;100953.88;2049927;29;816;-62
2022/06/01 02:39:52;;;;;;;;;;;;;;;22.35;48.74;100952.09;2049900;29;876;-61
2022/06/01 02:40:52;;;;;;;;;;;;;;;22.34;48.29;100954.84;2049915;29;987;-60
2022/06/01 02:43:26;;;;;;;;;;;;;;;22.33;49.07;100954.00;2049952;29;1112;-60
2022/06/01 02:44:26;;;;;;;;;;;;;;;22.33;48.77;100962.09;2049942;29;777;-61
2022/06/01 02:45:27;;;;;;;;;;;;;;;22.32;49.10;100949.53;2049865;29;935;-60
2022/06/01 02:46:27;;;;;;;;;;;;;;;22.32;48.74;100952.22;2049968;29;880;-61
2022/06/01 02:47:31;;;;;;;;;;;;;;;22.32;49.30;100952.22;2049850;29;1266;-61
2022/06/01 02:48:31;;;;;;;;;;;;;;;22.32;48.93;100959.44;2049861;29;816;-61
2022/06/01 02:49:32;;;;;;;;;;;;;;;22.31;48.43;100955.88;2049791;29;1957;-61
2022/06/01 02:50:33;;;;;;;;;;;;;;;22.31;48.38;100953.16;2070850;28;926;-59
2022/06/01 02:51:33;;;;;;;;;;;;;;;22.32;49.16;100963.03;2074848;28;1432;-61
2022/06/01 02:52:33;;;;;;;;;;;;;;;22.32;48.76;100963.03;2074938;28;775;-61
2022/06/01 02:53:33;;;;;;;;;;;;;;;22.32;48.54;100963.03;2074973;28;926;-60
2022/06/01 02:54:34;;;;;;;;;;;;;;;22.32;48.54;100963.03;2074966;28;902;-60
2022/06/01 02:55:34;;;;;;;;;;;;;;;22.31;48.45;100955.88;2074238;28;958;-61
2022/06/01 02:56:34;;;;;;;;;;;;;;;22.31;49.04;100961.25;2074366;28;769;-61
2022/06/01 02:57:35;;;;;;;;;;;;;;;22.31;48.54;100961.25;2074919;28;792;-61
2022/06/01 02:58:37;;;;;;;;;;;;;;;22.32;48.67;100957.63;2074667;28;985;-61
2022/06/01 02:59:37;;;;;;;;;;;;;;;22.33;48.59;100961.19;2074430;28;812;-60
2022/06/01 03:00:40;;;;;;;;;;;;;;;22.31;49.06;100896.50;2074962;28;849;-62
2022/06/01 03:01:40;;;;;;;;;;;;;;;22.31;48.82;100910.00;2074862;28;878;-61
2022/06/01 03:02:42;;;;;;;;;;;;;;;22.31;48.88;100910.00;2074933;28;844;-62
2022/06/01 03:03:42;;;;;;;;;;;;;;;22.32;48.15;100913.56;2074876;28;776;-61
2022/06/01 03:04:43;;;;;;;;;;;;;;;22.31;48.44;100912.69;2074892;28;887;-61
2022/06/01 03:05:43;;;;;;;;;;;;;;;22.31;48.82;100903.69;2074870;28;816;-62
2022/06/01 03:06:44;;;;;;;;;;;;;;;22.30;48.05;100900.13;2075764;28;986;-61
2022/06/01 03:07:44;;;;;;;;;;;;;;;22.31;47.49;100938.78;2074905;28;777;-60
2022/06/01 03:08:45;;;;;;;;;;;;;;;22.32;47.44;100986.41;2074852;28;1033;-61
2022/06/01 03:09:45;;;;;;;;;;;;;;;22.32;48.14;100972.91;2074819;28;1907;-61
2022/06/01 03:10:47;;;;;;;;;;;;;;;22.30;47.49;100964.00;2074835;28;833;-60
2022/06/01 03:11:47;;;;;;;;;;;;;;;22.29;47.50;100955.03;2074925;28;922;-61
2022/06/01 03:12:48;;;;;;;;;;;;;;;22.30;47.33;100950.50;2074861;28;963;-61
2022/06/01 03:13:48;;;;;;;;;;;;;;;22.30;47.79;100958.59;2074902;28;974;-61
2022/06/01 03:14:48;;;;;;;;;;;;;;;22.30;46.91;100956.81;2074998;28;799;-60
2022/06/01 03:15:49;;;;;;;;;;;;;;;22.30;46.80;100953.22;2074928;28;915;-61
2022/06/01 03:16:50;;;;;;;;;;;;;;;22.29;46.71;100952.34;2074789;28;1049;-60
2022/06/01 03:17:50;;;;;;;;;;;;;;;22.30;46.87;100953.22;2074667;28;1256;-60
2022/06/01 03:18:50;;;;;;;;;;;;;;;22.30;47.24;100955.91;2074807;28;808;-61
2022/06/01 03:19:50;;;;;;;;;;;;;;;22.29;46.21;100957.75;2074771;28;998;-61
2022/06/01 03:20:51;;;;;;;;;;;;;;;22.30;46.86;100964.00;2074912;28;919;-61
2022/06/01 03:21:51;;;;;;;;;;;;;;;22.29;46.64;100963.13;2074802;28;828;-61
2022/06/01 03:22:51;;;;;;;;;;;;;;;22.29;46.13;100959.53;2074782;28;974;-60
2022/06/01 03:23:51;;;;;;;;;;;;;;;22.28;46.25;100958.69;2074753;28;764;-60
2022/06/01 03:24:52;;;;;;;;;;;;;;;22.28;46.74;100958.69;2074748;28;963;-61
2022/06/01 03:25:52;;;;;;;;;;;;;;;22.29;46.06;100963.13;2074809;28;1001;-62
2022/06/01 03:26:52;;;;;;;;;;;;;;;22.28;45.99;100964.06;2074768;28;823;-60
2022/06/01 03:27:53;;;;;;;;;;;;;;;22.29;45.88;100965.84;2074700;28;926;-61
2022/06/01 03:28:54;;;;;;;;;;;;;;;22.30;45.70;100961.31;2074824;28;1693;-61
2022/06/01 03:29:54;;;;;;;;;;;;;;;22.30;45.77;100964.91;2074798;28;1967;-61
2022/06/01 03:30:55;;;;;;;;;;;;;;;22.30;46.36;100969.41;2074718;28;772;-61
2022/06/01 03:31:55;;;;;;;;;;;;;;;22.29;45.95;100952.34;2074883;28;751;-62
2022/06/01 03:32:56;;;;;;;;;;;;;;;22.28;46.18;100961.38;2074739;28;749;-61
2022/06/01 03:33:57;;;;;;;;;;;;;;;22.30;45.70;100964.00;2074706;28;940;-61
2022/06/01 03:34:57;;;;;;;;;;;;;;;22.29;45.64;100971.25;2074728;28;816;-62
2022/06/01 03:35:57;;;;;;;;;;;;;;;22.29;45.79;100970.34;2074674;28;835;-61
2022/06/01 03:36:57;;;;;;;;;;;;;;;22.29;45.77;100973.94;2074751;28;757;-62
2022/06/01 03:37:58;;;;;;;;;;;;;;;22.29;45.92;100967.63;2074707;28;963;-61
2022/06/01 03:38:58;;;;;;;;;;;;;;;22.30;45.95;100969.41;2074727;28;788;-61
2022/06/01 03:39:58;;;;;;;;;;;;;;;22.29;46.29;100968.53;2074686;28;1188;-61
2022/06/01 03:40:59;;;;;;;;;;;;;;;22.29;46.00;100976.63;2074658;28;971;-61
2022/06/01 03:41:59;;;;;;;;;;;;;;;22.29;46.43;100973.03;2074690;28;831;-61
2022/06/01 03:43:00;;;;;;;;;;;;;;;22.28;46.37;100974.88;2074715;28;887;-60
2022/06/01 03:46:38;;;;;;;;;;;;;;;22.28;46.66;100972.16;2074794;28;676;-62
2022/06/01 03:47:38;;;;;;;;;;;;;;;22.29;46.42;100973.03;2074693;28;1073;-61
2022/06/01 03:48:38;;;;;;;;;;;;;;;22.29;47.16;100978.44;2074682;28;902;-61
2022/06/01 03:49:38;;;;;;;;;;;;;;;22.29;47.30;100981.13;2074646;28;1961;-61
2022/06/01 03:50:38;;;;;;;;;;;;;;;22.29;46.73;100979.34;2074658;28;918;-62
2022/06/01 03:51:38;;;;;;;;;;;;;;;22.28;46.87;100974.88;2074687;28;970;-61
2022/06/01 03:52:39;;;;;;;;;;;;;;;22.29;47.40;100973.03;2074677;28;819;-60
2022/06/01 03:53:39;;;;;;;;;;;;;;;22.29;47.57;100976.63;2074636;28;824;-60
2022/06/01 03:54:39;;;;;;;;;;;;;;;22.29;47.52;100976.63;2074655;28;1033;-61
2022/06/01 03:55:40;;;;;;;;;;;;;;;22.29;47.55;100976.63;2074618;28;847;-61
2022/06/01 03:56:40;;;;;;;;;;;;;;;22.29;47.25;100973.03;2074673;28;875;-61
2022/06/01 03:57:41;;;;;;;;;;;;;;;22.29;47.79;100975.75;2075445;28;815;-61
2022/06/01 03:58:41;;;;;;;;;;;;;;;22.29;47.36;100973.94;2074911;28;835;-61
2022/06/01 03:59:42;;;;;;;;;;;;;;;22.28;47.77;100973.97;2074807;28;1078;-61
2022/06/01 04:00:42;;;;;;;;;;;;;;;22.29;47.73;100982.03;2074575;28;986;-61
2022/06/01 04:01:43;;;;;;;;;;;;;;;22.41;47.40;100969.88;2073971;28;1240;-60
2022/06/01 04:02:43;;;;;;;;;;;;;;;23.60;44.59;100966.81;2074019;28;850;-61
2022/06/01 04:03:43;;;;;;;;;;;;;;;24.40;42.70;100970.41;2074675;28;1001;-62
2022/06/01 04:04:43;;;;;;;;;;;;;;;24.98;40.98;100970.41;2074559;28;1022;-60
2022/06/01 04:05:44;;;;;;;;;;;;;;;25.31;40.04;100967.81;2074600;28;902;-59
2022/06/01 04:06:44;;;;;;;;;;;;;;;25.60;39.12;100972.69;2074624;28;756;-60
2022/06/01 04:07:44;;;;;;;;;;;;;;;25.98;38.24;100974.28;2074583;28;986;-62
2022/06/01 04:08:44;;;;;;;;;;;;;;;26.32;37.90;100972.47;2074639;28;855;-61
2022/06/01 04:09:45;;;;;;;;;;;;;;;26.52;36.41;100982.22;2065726;28;1970;-61
2022/06/01 04:10:45;;;;;;;;;;;;;;;26.68;36.18;100976.75;2066579;28;875;-60
2022/06/01 04:11:45;;;;;;;;;;;;;;;26.71;35.71;100973.00;2076195;28;966;-60
2022/06/01 04:12:46;;;;;;;;;;;;;;;26.85;35.50;100969.53;2076304;28;812;-60
2022/06/01 04:13:46;;;;;;;;;;;;;;;27.19;34.75;100975.66;2076273;28;815;-60
2022/06/01 04:14:46;;;;;;;;;;;;;;;27.31;35.03;100963.22;2076176;28;938;-61
2022/06/01 04:15:46;;;;;;;;;;;;;;;27.60;34.44;100963.28;2075521;28;954;-60
2022/06/01 04:16:47;;;;;;;;;;;;;;;27.84;33.66;100957.31;2075568;28;985;-60
2022/06/01 04:17:47;;;;;;;;;;;;;;;28.00;33.12;100963.50;2076018;28;1058;-60
2022/06/01 04:18:48;;;;;;;;;;;;;;;28.32;32.53;100970.63;2076218;28;853;-61
2022/06/01 04:19:49;;;;;;;;;;;;;;;28.40;32.42;100966.44;2076045;28;1360;-60
2022/06/01 04:20:52;;;;;;;;;;;;;;;28.52;31.90;100972.06;2076125;28;1021;-59
2022/06/01 04:21:53;;;;;;;;;;;;;;;28.69;31.79;100969.09;2076117;28;795;-59
2022/06/01 04:22:54;;;;;;;;;;;;;;;28.75;31.65;100972.38;2076089;28;816;-60
2022/06/01 04:23:58;;;;;;;;;;;;;;;28.93;30.69;100973.03;2076153;28;800;-59
2022/06/01 04:24:58;;;;;;;;;;;;;;;28.91;31.34;100975.00;2076104;28;796;-60
2022/06/01 04:25:59;;;;;;;;;;;;;;;29.07;30.48;100972.97;2076096;28;756;-59
2022/06/01 04:26:59;;;;;;;;;;;;;;;29.26;30.22;100966.28;2076089;28;856;-59
2022/06/01 04:27:59;;;;;;;;;;;;;;;29.38;30.19;100964.56;2076074;28;990;-60
2022/06/01 04:28:59;;;;;;;;;;;;;;;29.47;29.99;100972.13;2076073;28;667;-60
2022/06/01 04:29:59;;;;;;;;;;;;;;;29.58;30.05;100974.09;2075978;28;1973;-59
2022/06/01 04:30:59;;;;;;;;;;;;;;;29.71;29.71;100972.25;2076054;28;904;-59
2022/06/01 04:32:03;;;;;;;;;;;;;;;29.72;30.00;100973.16;2076073;28;824;-60
2022/06/01 04:33:03;;;;;;;;;;;;;;;29.93;29.54;100975.31;2075981;28;871;-60
2022/06/01 04:34:04;;;;;;;;;;;;;;;29.97;29.46;100977.72;2076042;28;910;-60
2022/06/01 04:35:05;;;;;;;;;;;;;;;30.05;29.20;100970.84;2076052;28;804;-59
2022/06/01 04:36:05;;;;;;;;;;;;;;;30.18;29.34;100979.91;2076041;28;1013;-60
2022/06/01 04:37:06;;;;;;;;;;;;;;;30.11;29.63;100979.50;2075980;28;1208;-60
2022/06/01 04:38:12;;;;;;;;;;;;;;;30.41;29.06;100977.38;2076096;28;851;-60
2022/06/01 04:39:12;;;;;;;;;;;;;;;30.44;28.73;100978.00;2076030;28;887;-59
2022/06/01 04:40:13;;;;;;;;;;;;;;;30.63;28.74;100973.94;2067355;28;800;-59
2022/06/01 04:41:13;;;;;;;;;;;;;;;30.72;28.46;100989.66;2067281;28;796;-59
2022/06/01 04:42:13;;;;;;;;;;;;;;;30.87;28.64;100981.31;2067160;28;1026;-59
2022/06/01 04:43:14;;;;;;;;;;;;;;;30.88;28.23;100977.56;2067223;28;784;-59
2022/06/01 04:44:15;;;;;;;;;;;;;;;30.96;28.42;100982.44;2076372;28;1073;-59
2022/06/01 04:45:15;;;;;;;;;;;;;;;31.04;28.12;100986.34;2075968;28;981;-59
2022/06/01 04:46:15;;;;;;;;;;;;;;;31.14;28.05;100978.31;2076137;28;741;-60
2022/06/01 04:47:16;;;;;;;;;;;;;;;31.23;28.05;100984.97;2075972;28;852;-59
2022/06/01 04:48:16;;;;;;;;;;;;;;;31.28;27.70;100981.84;2075927;28;915;-59
2022/06/01 04:49:16;;;;;;;;;;;;;;;31.32;27.82;100984.25;2075809;28;1906;-60
2022/06/01 04:50:16;;;;;;;;;;;;;;;31.45;27.60;100981.44;2067159;28;1182;-59
2022/06/01 04:51:17;;;;;;;;;;;;;;;31.58;27.50;100984.06;2067158;28;1050;-59
2022/06/01 04:52:17;;;;;;;;;;;;;;;31.68;27.52;100988.81;2075852;28;777;-59
2022/06/01 04:53:17;;;;;;;;;;;;;;;31.56;27.66;100993.41;2075879;28;1024;-59
2022/06/01 04:54:17;;;;;;;;;;;;;;;31.49;27.64;100999.34;2075825;28;887;-60
2022/06/01 04:55:18;;;;;;;;;;;;;;;31.56;27.26;100982.47;2076002;28;876;-60
2022/06/01 04:56:18;;;;;;;;;;;;;;;31.53;27.18;100994.50;2075882;28;1052;-59
2022/06/01 04:57:18;;;;;;;;;;;;;;;31.56;27.38;100990.66;2075888;28;776;-59
2022/06/01 04:58:18;;;;;;;;;;;;;;;31.61;27.60;100991.19;2075811;28;824;-59
2022/06/01 04:59:18;;;;;;;;;;;;;;;31.37;27.48;101000.31;2075818;28;1205;-60
2022/06/01 05:00:19;;;;;;;;;;;;;;;31.44;28.01;100995.25;2075866;28;903;-60
2022/06/01 05:01:19;;;;;;;;;;;;;;;31.64;28.20;101000.00;2075829;28;1029;-59
2022/06/01 05:02:19;;;;;;;;;;;;;;;31.61;27.98;100997.50;2067053;28;1022;-60
2022/06/01 05:03:19;;;;;;;;;;;;;;;31.67;28.54;100993.44;2067057;28;978;-60
2022/06/01 05:04:19;;;;;;;;;;;;;;;31.68;28.25;101002.50;2075760;28;781;-59
2022/06/01 05:05:20;;;;;;;;;;;;;;;31.59;28.30;101004.13;2075904;28;812;-60
2022/06/01 05:06:20;;;;;;;;;;;;;;;31.64;28.80;101002.75;2075766;28;997;-59
2022/06/01 05:07:20;;;;;;;;;;;;;;;31.77;28.72;101005.44;2075762;28;828;-60
2022/06/01 05:08:20;;;;;;;;;;;;;;;31.84;28.46;101003.09;2075769;28;856;-60
2022/06/01 05:09:20;;;;;;;;;;;;;;;31.88;28.70;100999.09;2075689;28;1863;-59
2022/06/01 05:10:23;;;;;;;;;;;;;;;31.98;28.38;100999.22;2075748;28;784;-59
2022/06/01 05:11:23;;;;;;;;;;;;;;;32.01;28.25;100998.97;2075027;28;1154;-59
2022/06/01 05:12:24;;;;;;;;;;;;;;;32.01;28.56;101001.72;2075180;28;899;-59
2022/06/01 05:13:24;;;;;;;;;;;;;;;31.90;28.55;101001.72;2075823;28;840;-60
2022/06/01 05:14:24;;;;;;;;;;;;;;;31.81;28.85;101003.31;2075714;28;966;-59
2022/06/01 05:15:24;;;;;;;;;;;;;;;31.88;28.77;100999.09;2075685;28;871;-60
2022/06/01 05:16:25;;;;;;;;;;;;;;;32.01;28.40;101001.72;2075901;28;870;-60
2022/06/01 05:17:25;;;;;;;;;;;;;;;32.00;28.53;101004.59;2075499;28;1328;-59
2022/06/01 05:18:25;;;;;;;;;;;;;;;31.91;28.46;101004.34;2075743;28;768;-59
2022/06/01 05:19:25;;;;;;;;;;;;;;;31.89;28.69;101002.69;2075811;28;816;-60
2022/06/01 05:20:26;;;;;;;;;;;;;;;31.83;28.72;101009.56;2075655;28;966;-60
2022/06/01 05:21:26;;;;;;;;;;;;;;;31.81;28.77;100999.69;2075675;28;785;-60
2022/06/01 05:22:26;;;;;;;;;;;;;;;31.82;28.52;100998.69;2074675;28;832;-59
2022/06/01 05:23:26;;;;;;;;;;;;;;;31.92;28.42;100999.72;2075659;28;1026;-58
2022/06/01 05:24:27;;;;;;;;;;;;;;;32.05;28.28;101002.38;2075665;28;994;-60
2022/06/01 05:25:27;;;;;;;;;;;;;;;32.03;28.40;101002.47;2075693;28;788;-60
2022/06/01 05:26:27;;;;;;;;;;;;;;;32.06;28.29;101004.97;2075671;28;883;-60
2022/06/01 05:27:27;;;;;;;;;;;;;;;32.14;28.14;100998.84;2075615;28;989;-59
2022/06/01 05:28:29;;;;;;;;;;;;;;;32.02;28.02;101006.22;2075625;28;794;-59
2022/06/01 05:29:29;;;;;;;;;;;;;;;32.00;28.31;101004.59;2075482;28;1973;-62
2022/06/01 05:30:29;;;;;;;;;;;;;;;32.01;28.30;101009.94;2075596;28;749;-59
2022/06/01 05:31:29;;;;;;;;;;;;;;;32.17;28.15;101004.09;2075591;28;840;-59
2022/06/01 05:32:29;;;;;;;;;;;;;;;32.22;28.24;101006.47;2075547;28;974;-60